Time;durP1;ratioP1;P1;durP2;ratioP2;P2;SDS_P1;SDS_P2;PMS_P1;PMS_P2;Temp;Humidity;BMP_temperature;BMP_pressure;BME280_temperature;BME280_humidity;BME280_pressure;Samples;Min_cycle;Max_cycle;Signal;HPM_P1;HPM_P2
2022/03/20 00:01:47;;;;;;;20.67;17.30;;;5.60;95.20;;;;;;5040034;28;20280;-77
2022/03/20 00:04:12;;;;;;;21.60;17.20;;;5.00;94.70;;;;;;5023843;28;20679;-78
2022/03/20 00:06:38;;;;;;;22.10;17.60;;;5.50;95.60;;;;;;5040227;28;20233;-78
2022/03/20 00:09:03;;;;;;;22.40;17.37;;;5.20;95.50;;;;;;5033077;28;20286;-76
2022/03/20 00:11:29;;;;;;;21.77;17.83;;;5.00;95.80;;;;;;5040901;28;20629;-76
2022/03/20 00:13:54;;;;;;;20.97;18.43;;;5.20;96.10;;;;;;5042303;28;20214;-77
2022/03/20 00:16:23;;;;;;;22.00;17.30;;;5.20;96.20;;;;;;5033523;28;20188;-77
2022/03/20 00:18:48;;;;;;;23.55;17.55;;;5.30;96.40;;;;;;5031816;28;20184;-77
2022/03/20 00:21:14;;;;;;;20.30;16.60;;;4.80;96.00;;;;;;5028435;28;20192;-77
2022/03/20 00:23:40;;;;;;;22.27;18.47;;;5.40;96.20;;;;;;5032020;28;20283;-78
2022/03/20 00:26:06;;;;;;;20.90;17.20;;;5.10;96.10;;;;;;5025510;28;20184;-79
2022/03/20 00:28:32;;;;;;;20.98;17.08;;;5.70;96.30;;;;;;5032665;28;20599;-78
2022/03/20 00:30:58;;;;;;;21.17;17.33;;;5.40;96.00;;;;;;5025352;28;20203;-78
2022/03/20 00:33:24;;;;;;;20.00;16.97;;;5.10;95.80;;;;;;5036501;28;20220;-77
2022/03/20 00:35:50;;;;;;;21.07;17.47;;;5.60;95.90;;;;;;5044494;28;20204;-78
2022/03/20 00:38:16;;;;;;;22.70;17.85;;;5.40;95.40;;;;;;5037769;28;20557;-78
2022/03/20 00:40:43;;;;;;;22.13;17.97;;;5.50;95.60;;;;;;5025080;28;20195;-78
2022/03/20 00:43:09;;;;;;;22.88;18.02;;;5.20;96.00;;;;;;5044833;28;20218;-78
2022/03/20 00:45:35;;;;;;;23.35;17.10;;;5.20;96.10;;;;;;5031092;28;20446;-78
2022/03/20 00:48:01;;;;;;;22.97;17.53;;;4.80;96.00;;;;;;5028159;28;20694;-77
2022/03/20 00:50:28;;;;;;;22.50;17.10;;;5.30;96.10;;;;;;5044634;28;20465;-76
2022/03/20 00:52:54;;;;;;;20.63;18.08;;;5.50;96.40;;;;;;5049145;28;20509;-78
2022/03/20 00:55:20;;;;;;;19.80;16.83;;;5.50;96.30;;;;;;5036618;28;20595;-77
2022/03/20 00:57:46;;;;;;;22.83;18.00;;;5.00;95.70;;;;;;5052122;28;20872;-77
2022/03/20 01:00:12;;;;;;;21.30;17.13;;;4.90;95.60;;;;;;5022967;28;20179;-77
2022/03/20 01:02:39;;;;;;;19.67;17.27;;;5.40;96.00;;;;;;5033816;28;20187;-77
2022/03/20 01:05:05;;;;;;;22.88;17.40;;;4.70;95.50;;;;;;5040605;28;20183;-77
2022/03/20 01:07:31;;;;;;;21.73;18.42;;;5.30;95.70;;;;;;5042196;28;20221;-77
2022/03/20 01:09:56;;;;;;;20.13;17.90;;;5.50;95.90;;;;;;5032009;28;20188;-77
2022/03/20 01:12:22;;;;;;;23.07;17.70;;;5.40;95.80;;;;;;5033754;28;20215;-78
2022/03/20 01:14:47;;;;;;;23.30;17.47;;;5.20;95.90;;;;;;5022611;28;20206;-77
2022/03/20 01:17:13;;;;;;;22.07;18.10;;;5.10;95.50;;;;;;5034627;28;20272;-77
2022/03/20 01:19:39;;;;;;;21.00;17.80;;;4.50;95.60;;;;;;5038945;28;20190;-78
2022/03/20 01:22:04;;;;;;;21.70;18.80;;;4.70;95.80;;;;;;5045230;28;20189;-77
2022/03/20 01:24:30;;;;;;;22.20;16.73;;;5.20;95.90;;;;;;5033209;28;20253;-77
2022/03/20 01:26:56;;;;;;;19.87;15.70;;;4.50;96.00;;;;;;5030631;28;20277;-78
2022/03/20 01:29:22;;;;;;;24.60;17.10;;;4.50;96.00;;;;;;5025706;28;20187;-78
2022/03/20 01:31:49;;;;;;;20.77;18.07;;;4.90;95.80;;;;;;5029114;28;20526;-78
2022/03/20 01:34:14;;;;;;;22.67;17.40;;;5.00;95.80;;;;;;5022034;28;20200;-78
2022/03/20 01:36:40;;;;;;;20.83;17.50;;;5.20;95.60;;;;;;5056442;28;20675;-77
2022/03/20 01:39:06;;;;;;;21.63;17.10;;;5.10;95.50;;;;;;5041966;28;20871;-77
2022/03/20 01:41:31;;;;;;;22.03;17.77;;;5.00;95.50;;;;;;5047381;28;20436;-78
2022/03/20 01:44:02;;;;;;;20.47;17.40;;;5.30;95.70;;;;;;5030619;28;20305;-78
2022/03/20 01:46:30;;;;;;;20.55;17.73;;;5.50;95.50;;;;;;5026412;28;20186;-77
2022/03/20 01:48:56;;;;;;;19.83;16.80;;;5.20;95.60;;;;;;5044737;28;20547;-77
2022/03/20 01:54:06;;;;;;;19.38;16.80;;;5.40;96.10;;;;;;5044860;28;20574;-77
2022/03/20 01:56:33;;;;;;;20.27;16.52;;;4.90;96.00;;;;;;5026994;28;20698;-77
2022/03/20 01:59:01;;;;;;;21.55;17.33;;;5.10;96.00;;;;;;5030145;28;20183;-77
2022/03/20 02:01:27;;;;;;;18.80;16.33;;;5.10;95.70;;;;;;5028615;28;20267;-77
2022/03/20 02:03:53;;;;;;;22.03;17.40;;;4.60;95.10;;;;;;5025220;28;20300;-78
2022/03/20 02:06:19;;;;;;;19.77;16.67;;;5.70;95.30;;;;;;5042208;28;20264;-77
2022/03/20 02:08:44;;;;;;;23.00;18.08;;;5.10;95.00;;;;;;5029259;28;20468;-77
2022/03/20 02:11:10;;;;;;;21.83;16.60;;;5.00;95.80;;;;;;5039630;28;20687;-77
2022/03/20 02:13:36;;;;;;;19.17;16.50;;;4.60;95.30;;;;;;5028386;28;20207;-78
2022/03/20 02:16:01;;;;;;;21.33;17.80;;;4.90;95.50;;;;;;5033127;28;20182;-78
2022/03/20 02:18:27;;;;;;;21.53;17.70;;;5.10;95.60;;;;;;5051523;28;20646;-77
2022/03/20 02:20:53;;;;;;;23.60;17.63;;;4.60;95.00;;;;;;5031627;28;20278;-77
2022/03/20 02:23:18;;;;;;;23.02;17.23;;;5.50;95.70;;;;;;5039309;28;20634;-77
2022/03/20 02:25:51;;;;;;;21.13;16.03;;;5.10;95.40;;;;;;5037619;28;20198;-77
2022/03/20 02:28:17;;;;;;;18.85;16.20;;;5.20;95.60;;;;;;5032249;28;20186;-77
2022/03/20 02:30:45;;;;;;;21.48;15.73;;;5.40;95.60;;;;;;5029971;28;20205;-78
2022/03/20 02:33:10;;;;;;;19.48;16.58;;;4.60;94.90;;;;;;5054778;28;20289;-77
2022/03/20 02:35:37;;;;;;;18.30;16.10;;;4.60;95.00;;;;;;5022316;28;20273;-77
2022/03/20 02:38:04;;;;;;;19.35;16.27;;;5.20;95.30;;;;;;5028626;28;20182;-77
2022/03/20 02:40:29;;;;;;;21.27;16.88;;;5.40;95.70;;;;;;5031246;28;20183;-78
2022/03/20 02:42:55;;;;;;;24.43;17.90;;;5.00;95.10;;;;;;5026840;28;20214;-78
2022/03/20 02:45:29;;;;;;;21.03;17.03;;;5.20;95.50;;;;;;5025956;28;20190;-77
2022/03/20 02:47:57;;;;;;;20.70;17.55;;;4.80;95.50;;;;;;5029192;28;20184;-78
2022/03/20 02:50:29;;;;;;;21.40;17.50;;;4.90;95.60;;;;;;5026965;28;20184;-77
2022/03/20 02:52:58;;;;;;;19.10;17.08;;;4.70;95.60;;;;;;5031620;28;20203;-78
2022/03/20 02:55:24;;;;;;;22.33;16.90;;;5.10;95.60;;;;;;5030292;28;20195;-77
2022/03/20 02:57:52;;;;;;;20.80;17.87;;;5.20;95.70;;;;;;5035185;28;20358;-77
2022/03/20 03:00:21;;;;;;;19.60;16.40;;;5.00;95.80;;;;;;5032431;28;20183;-78
2022/03/20 03:02:48;;;;;;;21.65;17.55;;;4.80;95.60;;;;;;5049294;28;20351;-78
2022/03/20 03:05:16;;;;;;;19.42;16.48;;;5.00;95.40;;;;;;5034225;28;20205;-77
2022/03/20 03:13:16;;;;;;;19.85;16.45;;;5.10;95.50;;;;;;5042234;28;20222;-77
2022/03/20 03:15:42;;;;;;;24.33;18.40;;;5.00;95.50;;;;;;5028487;28;20285;-78
2022/03/20 03:18:08;;;;;;;20.20;16.70;;;4.90;95.50;;;;;;5031103;28;20584;-78
2022/03/20 03:20:34;;;;;;;20.10;17.07;;;5.10;95.60;;;;;;5023938;28;20193;-77
2022/03/20 03:23:01;;;;;;;22.63;17.98;;;4.80;95.60;;;;;;5054740;28;20467;-78
2022/03/20 03:25:26;;;;;;;25.80;17.70;;;4.50;95.50;;;;;;5033576;28;20271;-78
2022/03/20 03:27:53;;;;;;;20.93;17.80;;;4.30;95.90;;;;;;5031140;28;20262;-78
2022/03/20 03:30:19;;;;;;;18.83;16.65;;;5.10;96.50;;;;;;5035691;28;20664;-78
2022/03/20 03:32:45;;;;;;;21.70;17.20;;;5.10;96.20;;;;;;5037446;28;20224;-78
2022/03/20 03:37:57;;;;;;;21.02;17.10;;;5.30;96.10;;;;;;5048002;28;20233;-77
2022/03/20 03:40:23;;;;;;;21.08;16.13;;;4.90;95.80;;;;;;5030858;28;20186;-78
2022/03/20 03:42:49;;;;;;;23.30;17.30;;;4.90;95.80;;;;;;5031611;28;20213;-77
2022/03/20 03:45:14;;;;;;;23.27;16.83;;;4.80;95.50;;;;;;5027069;28;20659;-78
2022/03/20 03:47:43;;;;;;;22.67;17.77;;;4.90;95.80;;;;;;5033899;28;20247;-77
2022/03/20 03:50:09;;;;;;;19.88;16.92;;;4.80;96.20;;;;;;5047457;28;20183;-77
2022/03/20 03:52:36;;;;;;;21.90;16.70;;;4.90;94.80;;;;;;5034878;28;20206;-76
2022/03/20 03:55:02;;;;;;;20.08;16.15;;;4.70;95.40;;;;;;5035486;28;20183;-77
2022/03/20 03:57:28;;;;;;;19.33;15.95;;;5.50;95.70;;;;;;5036863;28;20210;-76
2022/03/20 03:59:54;;;;;;;19.77;16.97;;;5.50;95.40;;;;;;5027852;28;20256;-78
2022/03/20 04:02:19;;;;;;;18.43;15.50;;;4.60;95.30;;;;;;5042912;28;20187;-77
2022/03/20 04:04:46;;;;;;;19.70;16.30;;;4.70;94.90;;;;;;5022124;28;20205;-77
2022/03/20 04:07:13;;;;;;;22.25;16.63;;;4.60;95.00;;;;;;5032904;28;20630;-77
2022/03/20 04:09:38;;;;;;;19.60;16.25;;;5.10;95.00;;;;;;5032508;28;20218;-77
2022/03/20 04:12:04;;;;;;;20.53;16.57;;;5.30;95.20;;;;;;5020249;28;20750;-77
2022/03/20 04:14:32;;;;;;;22.90;16.15;;;5.00;94.90;;;;;;5032575;28;20202;-77
2022/03/20 04:16:57;;;;;;;19.80;16.30;;;4.50;94.60;;;;;;5034008;28;20186;-77
2022/03/20 04:19:23;;;;;;;20.20;15.30;;;5.60;95.00;;;;;;5025248;28;20241;-77
2022/03/20 04:21:49;;;;;;;20.23;17.20;;;4.60;94.50;;;;;;5028877;28;20257;-77
2022/03/20 04:24:15;;;;;;;17.97;15.60;;;5.60;94.70;;;;;;5028846;28;20577;-78
2022/03/20 04:26:41;;;;;;;21.03;15.90;;;5.20;94.60;;;;;;5053398;28;20194;-78
2022/03/20 04:29:06;;;;;;;21.13;17.03;;;5.30;95.10;;;;;;5032871;28;20302;-77
2022/03/20 04:31:32;;;;;;;19.03;15.50;;;5.20;95.00;;;;;;5019438;28;20470;-79
2022/03/20 04:33:58;;;;;;;22.53;14.50;;;4.80;95.10;;;;;;5027146;28;20207;-77
2022/03/20 04:36:25;;;;;;;19.53;15.57;;;5.10;94.80;;;;;;5032073;28;20565;-78
2022/03/20 04:38:52;;;;;;;19.70;16.40;;;5.20;95.10;;;;;;5027488;28;20449;-77
2022/03/20 04:41:18;;;;;;;20.38;16.40;;;4.70;94.70;;;;;;5034216;28;20206;-77
2022/03/20 04:43:45;;;;;;;19.10;17.10;;;5.00;94.90;;;;;;5024525;28;20378;-76
2022/03/20 04:46:11;;;;;;;20.27;15.05;;;5.40;94.70;;;;;;5047565;28;20184;-78
2022/03/20 04:59:33;;;;;;;19.85;16.25;;;5.80;93.60;;;;;;5038279;28;20719;-76
2022/03/20 05:01:58;;;;;;;22.00;15.80;;;5.10;93.10;;;;;;5030464;28;20222;-77
2022/03/20 05:04:24;;;;;;;18.33;15.90;;;5.20;92.80;;;;;;5027251;28;20722;-77
2022/03/20 05:06:50;;;;;;;23.03;17.27;;;5.40;92.70;;;;;;5032084;28;20279;-76
2022/03/20 05:14:44;;;;;;;21.60;16.23;;;5.50;92.30;;;;;;5048277;28;20209;-77
2022/03/20 05:17:10;;;;;;;25.15;16.77;;;6.00;92.40;;;;;;5028527;28;20189;-77
2022/03/20 05:19:37;;;;;;;19.88;16.15;;;5.70;92.30;;;;;;5018718;28;20200;-77
2022/03/20 05:22:05;;;;;;;19.38;16.33;;;5.50;92.40;;;;;;5048719;28;20250;-77
2022/03/20 05:24:31;;;;;;;18.80;15.32;;;6.10;92.30;;;;;;5023473;28;20217;-77
2022/03/20 05:26:57;;;;;;;18.38;14.65;;;6.50;92.20;;;;;;5030026;28;20234;-77
2022/03/20 05:29:25;;;;;;;19.23;15.87;;;6.20;92.30;;;;;;5033655;28;20184;-77
2022/03/20 05:31:53;;;;;;;18.40;16.08;;;5.90;91.90;;;;;;5034366;28;20459;-77
2022/03/20 05:34:18;;;;;;;17.85;15.90;;;6.30;91.90;;;;;;5024434;28;20233;-78
2022/03/20 05:36:45;;;;;;;20.87;16.50;;;6.20;91.10;;;;;;5032102;28;20231;-78
2022/03/20 05:39:11;;;;;;;21.40;15.32;;;5.70;91.10;;;;;;5027772;28;20729;-77
2022/03/20 05:41:50;;;;;;;20.10;16.00;;;6.20;91.30;;;;;;5026433;28;20207;-76
2022/03/20 05:44:24;;;;;;;22.27;16.27;;;5.70;90.90;;;;;;5030431;28;20223;-77
2022/03/20 05:46:51;;;;;;;20.77;16.23;;;6.00;91.00;;;;;;5032370;28;20189;-77
2022/03/20 05:49:22;;;;;;;18.95;16.17;;;5.90;90.70;;;;;;5022873;28;20196;-78
2022/03/20 05:51:49;;;;;;;21.88;16.67;;;6.60;91.00;;;;;;5028993;28;20275;-78
2022/03/20 05:54:16;;;;;;;22.00;15.88;;;6.30;90.40;;;;;;5044587;28;20228;-78
2022/03/20 05:59:29;;;;;;;23.77;17.55;;;6.30;89.70;;;;;;5035704;28;20289;-77
2022/03/20 06:01:55;;;;;;;22.60;16.03;;;6.80;89.80;;;;;;5027598;28;20277;-77
2022/03/20 06:04:21;;;;;;;21.20;17.13;;;6.50;88.40;;;;;;5025752;28;20224;-77
2022/03/20 06:06:50;;;;;;;23.70;18.25;;;6.90;89.20;;;;;;5027693;28;20436;-77
2022/03/20 06:09:16;;;;;;;21.75;18.08;;;6.90;89.50;;;;;;5023920;28;20194;-77
2022/03/20 06:11:42;;;;;;;21.73;17.90;;;7.40;89.10;;;;;;5030007;28;20219;-77
2022/03/20 06:14:08;;;;;;;27.95;18.88;;;6.60;88.90;;;;;;5022974;28;20599;-78
2022/03/20 06:16:35;;;;;;;23.90;19.23;;;6.80;88.60;;;;;;5048944;28;20272;-77
2022/03/20 06:19:02;;;;;;;22.42;18.08;;;6.90;88.80;;;;;;5023558;28;20185;-78
2022/03/20 06:21:27;;;;;;;22.45;17.88;;;7.30;88.00;;;;;;5026952;28;20186;-78
2022/03/20 06:23:54;;;;;;;25.80;18.63;;;7.90;87.90;;;;;;5029439;28;20216;-77
2022/03/20 06:26:23;;;;;;;22.60;19.13;;;7.70;87.80;;;;;;5029309;28;20189;-78
2022/03/20 06:28:53;;;;;;;21.63;18.63;;;7.70;87.70;;;;;;5029960;28;20590;-78
2022/03/20 06:31:19;;;;;;;23.77;19.30;;;7.70;87.50;;;;;;5021968;28;20205;-78
2022/03/20 06:33:46;;;;;;;22.70;19.05;;;7.90;87.70;;;;;;5021383;28;20596;-78
2022/03/20 06:36:13;;;;;;;24.30;18.73;;;8.40;87.40;;;;;;5021823;28;20194;-78
2022/03/20 06:38:39;;;;;;;25.15;19.70;;;7.80;85.10;;;;;;5042517;28;20564;-77
2022/03/20 06:41:09;;;;;;;20.55;17.70;;;8.40;85.30;;;;;;5031344;28;20182;-77
2022/03/20 06:43:36;;;;;;;24.75;20.42;;;8.90;85.20;;;;;;5022901;28;20222;-78
2022/03/20 06:46:03;;;;;;;20.88;18.13;;;8.90;85.00;;;;;;5022849;28;20186;-77
2022/03/20 06:48:28;;;;;;;25.13;19.90;;;8.00;83.20;;;;;;5029979;28;20188;-76
2022/03/20 06:50:54;;;;;;;23.67;19.23;;;8.40;82.90;;;;;;5030128;28;20214;-78
2022/03/20 06:53:20;;;;;;;22.90;18.70;;;8.50;83.00;;;;;;5023859;28;20216;-77
2022/03/20 06:55:46;;;;;;;20.60;17.58;;;9.20;83.30;;;;;;5047552;28;20532;-77
2022/03/20 06:58:13;;;;;;;24.35;19.92;;;9.10;82.80;;;;;;5031627;28;20174;-77
2022/03/20 07:00:40;;;;;;;23.52;19.17;;;8.70;83.10;;;;;;5029676;28;20187;-78
2022/03/20 07:03:08;;;;;;;25.27;19.60;;;8.60;82.80;;;;;;5026960;28;20292;-77
2022/03/20 07:05:35;;;;;;;22.25;19.50;;;8.50;83.10;;;;;;5040050;28;20174;-77
2022/03/20 07:08:01;;;;;;;29.67;20.88;;;9.30;83.20;;;;;;5033787;28;20181;-77
2022/03/20 07:10:27;;;;;;;23.90;19.63;;;8.70;81.00;;;;;;5028823;28;20190;-77
2022/03/20 07:15:42;;;;;;;23.00;19.58;;;10.80;76.40;;;;;;5039068;28;20190;-77
2022/03/20 07:18:12;;;;;;;24.25;19.00;;;11.40;75.00;;;;;;5031599;28;20187;-78
2022/03/20 07:20:39;;;;;;;22.95;19.85;;;11.60;70.60;;;;;;5027355;28;20209;-77
2022/03/20 07:23:09;;;;;;;23.42;20.80;;;12.40;69.40;;;;;;5033589;28;20201;-77
2022/03/20 07:31:24;;;;;;;22.30;20.00;;;13.00;66.10;;;;;;5029030;28;20438;-78
2022/03/20 07:33:50;;;;;;;23.00;19.87;;;13.50;63.10;;;;;;5023200;28;20696;-77
2022/03/20 07:36:16;;;;;;;24.00;20.40;;;13.90;61.20;;;;;;5037029;28;20190;-78
2022/03/20 07:38:42;;;;;;;23.37;20.10;;;14.00;62.20;;;;;;5033620;28;20472;-77
2022/03/20 07:41:08;;;;;;;22.80;20.35;;;14.10;60.90;;;;;;5033804;28;20826;-81
2022/03/20 07:43:33;;;;;;;24.07;21.57;;;15.10;58.50;;;;;;5020793;28;20295;-81
2022/03/20 07:46:00;;;;;;;22.80;20.37;;;15.00;58.00;;;;;;5033297;28;20189;-81
2022/03/20 07:48:25;;;;;;;25.10;22.30;;;15.40;57.60;;;;;;5032483;28;20561;-82
2022/03/20 07:50:51;;;;;;;22.30;20.07;;;15.30;56.70;;;;;;5030256;28;20202;-84
2022/03/20 07:53:17;;;;;;;23.20;20.80;;;16.50;56.90;;;;;;5033709;28;20209;-82
2022/03/20 07:55:43;;;;;;;23.20;20.83;;;16.80;55.60;;;;;;5031507;28;20431;-83
2022/03/20 07:58:09;;;;;;;23.55;21.20;;;16.60;54.70;;;;;;5030196;28;20219;-83
2022/03/20 08:00:41;;;;;;;24.13;21.40;;;18.20;54.90;;;;;;5014149;28;20265;-81
2022/03/20 08:03:06;;;;;;;23.83;21.33;;;17.50;53.10;;;;;;5028380;28;20220;-81
2022/03/20 08:05:32;;;;;;;24.30;21.80;;;17.90;51.60;;;;;;5017990;28;20182;-83
2022/03/20 08:07:58;;;;;;;23.77;21.17;;;17.70;50.90;;;;;;5039689;28;20212;-83
2022/03/20 08:10:24;;;;;;;24.65;22.15;;;18.40;51.70;;;;;;5026439;28;20318;-82
2022/03/20 08:12:49;;;;;;;24.53;21.93;;;17.70;51.00;;;;;;5020798;28;20298;-81
2022/03/20 08:15:15;;;;;;;25.40;22.90;;;17.60;51.50;;;;;;5032202;28;20276;-82
2022/03/20 08:17:45;;;;;;;24.53;21.93;;;17.80;50.50;;;;;;5033077;28;20626;-83
2022/03/20 08:20:11;;;;;;;25.77;22.92;;;18.00;50.30;;;;;;5039508;28;20189;-81
2022/03/20 08:22:37;;;;;;;22.48;20.05;;;18.60;50.70;;;;;;5032098;28;20749;-82
2022/03/20 08:25:04;;;;;;;24.30;21.90;;;18.30;49.90;;;;;;5032439;28;20288;-83
2022/03/20 08:27:30;;;;;;;23.38;20.75;;;18.30;49.70;;;;;;5027653;28;20182;-82
2022/03/20 08:29:57;;;;;;;26.03;22.20;;;18.70;49.90;;;;;;5028208;28;23886;-83
2022/03/20 08:32:23;;;;;;;24.00;21.20;;;18.50;49.50;;;;;;5029824;28;20304;-82
2022/03/20 08:34:50;;;;;;;22.70;20.30;;;17.30;50.40;;;;;;5025995;28;20268;-82
2022/03/20 08:37:15;;;;;;;23.70;21.20;;;17.70;50.80;;;;;;5029441;28;20454;-81
2022/03/20 08:39:41;;;;;;;25.07;22.67;;;17.00;50.90;;;;;;5026047;28;20182;-81
2022/03/20 08:42:07;;;;;;;24.60;22.07;;;17.00;51.90;;;;;;5019262;28;20957;-82
2022/03/20 08:44:33;;;;;;;25.67;22.90;;;17.80;51.60;;;;;;5039097;28;20202;-83
2022/03/20 08:46:58;;;;;;;24.77;22.07;;;18.10;50.50;;;;;;5029549;28;20447;-82
2022/03/20 08:49:24;;;;;;;24.73;22.13;;;18.50;50.10;;;;;;5037873;28;21044;-83
2022/03/20 08:51:49;;;;;;;24.47;21.90;;;19.20;50.40;;;;;;5042809;28;20669;-81
2022/03/20 08:54:15;;;;;;;24.57;21.63;;;19.50;49.10;;;;;;5028901;28;20201;-82
2022/03/20 08:56:41;;;;;;;23.20;20.87;;;18.80;49.10;;;;;;5029693;28;20267;-83
2022/03/20 08:59:06;;;;;;;24.03;21.53;;;19.10;49.50;;;;;;5027299;28;20436;-83
2022/03/20 09:01:32;;;;;;;24.00;21.67;;;19.10;49.00;;;;;;5028626;28;20235;-83
2022/03/20 09:03:58;;;;;;;23.97;21.57;;;19.60;48.70;;;;;;5026355;28;20201;-82
2022/03/20 09:06:23;;;;;;;22.40;20.27;;;19.70;47.80;;;;;;5028281;28;20202;-82
2022/03/20 09:08:50;;;;;;;21.53;19.33;;;20.60;47.30;;;;;;5027884;28;20190;-81
2022/03/20 09:11:17;;;;;;;21.40;18.40;;;18.70;46.10;;;;;;5044362;28;20297;-82
2022/03/20 09:13:42;;;;;;;21.33;19.17;;;19.30;48.10;;;;;;5024857;28;20347;-82
2022/03/20 09:18:59;;;;;;;21.92;19.60;;;18.80;46.90;;;;;;5045664;28;20734;-82
2022/03/20 09:21:29;;;;;;;21.65;19.45;;;19.20;46.80;;;;;;5018413;28;20281;-81
2022/03/20 09:23:54;;;;;;;21.17;19.08;;;19.00;47.20;;;;;;5059805;22;20234;-81
2022/03/20 09:26:20;;;;;;;21.70;19.50;;;19.30;46.20;;;;;;5020977;28;20906;-82
2022/03/20 09:28:46;;;;;;;21.23;19.20;;;20.50;46.80;;;;;;5025189;28;20238;-80
2022/03/20 09:31:13;;;;;;;20.10;18.00;;;20.00;44.80;;;;;;5018089;28;20221;-81
2022/03/20 09:33:40;;;;;;;19.75;17.70;;;20.80;45.00;;;;;;5020217;28;20241;-81
2022/03/20 09:36:06;;;;;;;21.50;19.25;;;21.10;44.00;;;;;;5019896;28;20630;-82
2022/03/20 09:38:32;;;;;;;20.40;18.45;;;20.80;44.00;;;;;;5024759;28;20314;-82
2022/03/20 09:41:03;;;;;;;20.33;18.20;;;20.60;43.50;;;;;;5037431;28;20187;-83
2022/03/20 09:43:30;;;;;;;20.52;18.50;;;20.40;45.00;;;;;;5018362;28;20485;-80
2022/03/20 09:45:55;;;;;;;20.08;18.08;;;21.00;44.50;;;;;;5021222;28;20224;-80
2022/03/20 09:48:21;;;;;;;21.70;19.57;;;21.20;43.80;;;;;;5028145;28;20194;-79
2022/03/20 09:50:49;;;;;;;19.43;17.43;;;21.30;43.40;;;;;;5019471;28;21070;-79
2022/03/20 09:53:14;;;;;;;19.83;17.80;;;21.30;43.30;;;;;;5018929;28;20567;-79
2022/03/20 09:55:40;;;;;;;19.17;17.27;;;22.10;42.10;;;;;;5020337;28;20182;-79
2022/03/20 09:58:05;;;;;;;20.70;18.27;;;22.40;41.70;;;;;;5013827;28;20954;-79
2022/03/20 10:00:32;;;;;;;20.03;17.93;;;23.90;41.40;;;;;;5024304;28;20174;-79
2022/03/20 10:02:57;;;;;;;21.10;18.90;;;24.10;41.70;;;;;;5021381;28;20637;-79
2022/03/20 10:05:28;;;;;;;20.63;18.50;;;23.00;41.30;;;;;;5014417;28;20744;-79
2022/03/20 10:08:07;;;;;;;19.97;17.93;;;22.50;41.70;;;;;;5023416;28;20190;-79
2022/03/20 10:10:32;;;;;;;23.10;17.77;;;22.50;43.20;;;;;;5016405;28;20797;-79
2022/03/20 10:12:59;;;;;;;19.10;17.00;;;22.10;43.50;;;;;;5026827;28;20491;-79
2022/03/20 10:15:34;;;;;;;19.40;17.38;;;22.40;45.40;;;;;;5003273;28;20589;-79
2022/03/20 10:18:10;;;;;;;18.50;16.67;;;22.00;44.00;;;;;;5022164;28;20177;-79
2022/03/20 10:20:46;;;;;;;20.83;17.30;;;22.60;44.10;;;;;;5013950;28;20440;-79
2022/03/20 10:23:36;;;;;;;18.50;16.55;;;21.20;44.50;;;;;;5021595;28;20472;-79
2022/03/20 10:26:11;;;;;;;19.70;16.80;;;20.70;46.00;;;;;;5015720;28;20646;-80
2022/03/20 10:28:42;;;;;;;18.58;16.52;;;20.40;47.20;;;;;;5019304;28;20272;-79
2022/03/20 10:31:15;;;;;;;19.35;17.25;;;19.80;47.50;;;;;;5020182;28;20220;-79
2022/03/20 10:33:43;;;;;;;20.95;18.35;;;19.30;47.90;;;;;;5024833;28;20202;-79
2022/03/20 10:36:11;;;;;;;19.10;17.10;;;19.20;48.70;;;;;;5019419;28;20329;-79
2022/03/20 10:38:38;;;;;;;19.35;17.35;;;19.00;49.20;;;;;;5025940;28;20490;-80
2022/03/20 10:41:22;;;;;;;18.35;16.48;;;19.10;49.30;;;;;;5024541;28;20182;-79
2022/03/20 10:43:49;;;;;;;19.00;17.05;;;18.60;50.90;;;;;;5008181;28;20236;-79
2022/03/20 10:46:20;;;;;;;19.52;16.80;;;18.20;50.60;;;;;;5019475;28;20189;-79
2022/03/20 10:48:52;;;;;;;17.10;15.40;;;18.60;51.20;;;;;;5026706;28;20720;-79
2022/03/20 10:51:37;;;;;;;18.00;16.08;;;18.40;51.70;;;;;;5024898;28;20248;-79
2022/03/20 10:54:04;;;;;;;17.75;15.82;;;17.60;52.20;;;;;;5020700;28;20228;-79
2022/03/20 10:56:30;;;;;;;18.63;15.80;;;18.30;52.60;;;;;;5028576;28;20186;-79
2022/03/20 10:58:56;;;;;;;20.50;16.93;;;18.00;52.40;;;;;;5021319;28;20182;-79
2022/03/20 11:01:36;;;;;;;20.40;16.30;;;17.70;52.60;;;;;;5026182;28;20189;-78
2022/03/20 11:04:05;;;;;;;19.60;16.52;;;17.60;52.90;;;;;;5022299;28;20199;-79
2022/03/20 11:06:30;;;;;;;18.67;15.50;;;17.80;52.80;;;;;;5027511;28;20192;-79
2022/03/20 11:08:56;;;;;;;19.23;15.10;;;18.10;52.70;;;;;;5025015;28;20186;-79
2022/03/20 11:11:24;;;;;;;16.83;14.77;;;18.50;52.60;;;;;;5028516;28;20211;-78
2022/03/20 11:13:52;;;;;;;20.25;15.95;;;18.80;51.70;;;;;;5009078;28;20206;-79
2022/03/20 11:16:23;;;;;;;16.55;14.85;;;19.10;51.10;;;;;;5025966;28;20541;-79
2022/03/20 11:18:52;;;;;;;15.63;13.98;;;19.00;51.00;;;;;;5026729;28;20183;-79
2022/03/20 11:21:23;;;;;;;17.90;15.77;;;19.20;51.20;;;;;;5028486;28;20277;-78
2022/03/20 11:23:53;;;;;;;17.17;15.38;;;18.90;51.00;;;;;;5025727;28;20233;-78
2022/03/20 11:26:21;;;;;;;16.35;14.75;;;19.40;51.20;;;;;;5023142;28;20217;-79
2022/03/20 11:28:51;;;;;;;16.30;14.57;;;20.10;50.60;;;;;;5010391;28;20198;-79
2022/03/20 11:31:17;;;;;;;15.00;13.45;;;20.40;49.30;;;;;;5018166;28;20548;-80
2022/03/20 11:33:44;;;;;;;16.70;13.80;;;20.80;48.20;;;;;;5022550;28;20210;-80
2022/03/20 11:36:12;;;;;;;20.73;14.63;;;20.80;47.90;;;;;;5029660;28;20448;-80
2022/03/20 11:38:37;;;;;;;16.83;14.77;;;20.50;47.90;;;;;;5026336;28;20189;-81
2022/03/20 11:41:17;;;;;;;14.50;13.00;;;20.90;48.80;;;;;;5029427;28;20190;-80
2022/03/20 11:44:05;;;;;;;13.90;12.20;;;21.30;47.00;;;;;;5019659;28;20710;-79
2022/03/20 11:46:33;;;;;;;17.17;13.05;;;21.00;46.20;;;;;;5026734;28;20194;-79
2022/03/20 11:49:14;;;;;;;14.80;12.95;;;20.20;46.60;;;;;;5027806;28;20186;-79
2022/03/20 11:51:58;;;;;;;13.30;11.65;;;20.70;46.70;;;;;;5024438;28;20773;-79
2022/03/20 11:54:42;;;;;;;18.77;13.35;;;20.80;46.50;;;;;;5019134;28;20189;-78
2022/03/20 11:57:27;;;;;;;23.00;13.48;;;21.00;46.80;;;;;;5025565;28;21558;-80
2022/03/20 11:59:56;;;;;;;14.63;12.88;;;21.10;46.30;;;;;;5024515;28;20183;-78
2022/03/20 12:02:27;;;;;;;17.83;12.93;;;20.90;46.30;;;;;;5026581;28;20209;-79
2022/03/20 12:05:23;;;;;;;15.20;11.80;;;21.10;46.40;;;;;;5023353;28;20209;-79
2022/03/20 12:08:13;;;;;;;13.40;12.10;;;20.30;46.40;;;;;;5022594;28;20207;-79
2022/03/20 12:11:07;;;;;;;13.75;11.50;;;20.70;47.30;;;;;;5030283;28;20662;-79
2022/03/20 12:14:14;;;;;;;11.82;10.63;;;20.70;47.20;;;;;;5020839;28;20206;-79
2022/03/20 12:16:48;;;;;;;14.27;11.00;;;20.70;46.80;;;;;;4998248;28;20200;-79
2022/03/20 12:19:15;;;;;;;10.63;9.52;;;20.60;46.70;;;;;;5027929;28;20579;-79
2022/03/20 12:21:58;;;;;;;12.63;9.80;;;20.70;46.90;;;;;;5027097;28;20201;-79
2022/03/20 12:24:36;;;;;;;11.77;8.80;;;20.20;46.70;;;;;;5023796;28;20202;-79
2022/03/20 12:27:23;;;;;;;12.23;8.98;;;19.80;46.50;;;;;;5026593;28;20186;-78
2022/03/20 12:30:14;;;;;;;8.40;7.13;;;20.20;47.00;;;;;;5029218;28;20190;-78
2022/03/20 12:32:49;;;;;;;12.45;8.60;;;19.60;45.80;;;;;;5026584;28;20210;-79
2022/03/20 12:35:20;;;;;;;9.45;8.00;;;19.60;46.30;;;;;;5026185;28;20223;-79
2022/03/20 12:37:48;;;;;;;9.75;7.47;;;19.00;46.10;;;;;;5019932;28;20190;-79
2022/03/20 12:40:28;;;;;;;9.10;8.20;;;19.00;46.50;;;;;;5024820;28;20185;-79
2022/03/20 12:43:10;;;;;;;12.60;8.45;;;18.80;46.30;;;;;;5026844;28;20693;-78
2022/03/20 12:45:41;;;;;;;12.65;9.90;;;18.70;46.80;;;;;;5027948;28;20193;-79
2022/03/20 12:48:12;;;;;;;14.07;11.63;;;18.70;48.00;;;;;;5024205;28;20190;-79
2022/03/20 12:50:39;;;;;;;15.60;12.35;;;18.70;49.20;;;;;;5021296;28;20186;-79
2022/03/20 12:53:21;;;;;;;21.80;15.30;;;19.10;49.70;;;;;;5028603;28;20628;-79
2022/03/20 12:55:56;;;;;;;18.00;12.38;;;18.70;50.10;;;;;;5022931;28;20179;-79
2022/03/20 12:58:23;;;;;;;13.57;12.13;;;18.50;49.10;;;;;;5018219;28;20640;-78
2022/03/20 13:00:49;;;;;;;16.48;12.00;;;19.00;49.50;;;;;;5028199;28;20193;-79
2022/03/20 13:03:16;;;;;;;14.13;10.50;;;18.50;49.40;;;;;;5029912;28;20205;-78
2022/03/20 13:05:45;;;;;;;12.50;10.10;;;18.80;49.20;;;;;;5023771;28;20213;-78
2022/03/20 13:08:11;;;;;;;13.43;10.55;;;19.00;49.60;;;;;;5027576;28;20539;-79
2022/03/20 13:10:39;;;;;;;11.88;10.43;;;19.30;50.00;;;;;;5028281;28;20182;-79
2022/03/20 13:13:06;;;;;;;11.40;10.20;;;20.00;49.20;;;;;;5022090;28;20697;-79
2022/03/20 13:15:38;;;;;;;12.88;10.63;;;19.10;47.80;;;;;;5027571;28;20272;-79
2022/03/20 13:18:05;;;;;;;15.38;11.63;;;19.70;48.20;;;;;;5027194;28;20244;-79
2022/03/20 13:20:33;;;;;;;11.20;10.10;;;19.40;47.10;;;;;;5027192;28;20182;-80